createdAt,value
2022-09-07T00:00:54.647Z,17.11
2022-09-07T00:01:54.700Z,17.12
2022-09-07T00:02:54.692Z,17.09
2022-09-07T00:03:54.748Z,17.05
2022-09-07T00:04:54.683Z,17.06
2022-09-07T00:05:54.652Z,17.06
2022-09-07T00:06:54.640Z,16.97
2022-09-07T00:07:54.659Z,16.97
2022-09-07T00:08:54.680Z,17.04
2022-09-07T00:09:54.681Z,17.01
2022-09-07T00:10:54.629Z,16.99
2022-09-07T00:11:54.607Z,16.93
2022-09-07T00:12:54.609Z,16.91
2022-09-07T00:13:54.650Z,16.90
2022-09-07T00:14:54.557Z,16.94
2022-09-07T00:15:54.617Z,16.89
2022-09-07T00:16:54.576Z,16.90
2022-09-07T00:17:54.542Z,16.86
2022-09-07T00:18:54.553Z,16.89
2022-09-07T00:19:54.554Z,16.89
2022-09-07T00:20:54.541Z,16.87
2022-09-07T00:21:54.525Z,16.89
2022-09-07T00:22:54.515Z,16.87
2022-09-07T00:23:54.505Z,16.91
2022-09-07T00:24:54.530Z,16.79
2022-09-07T00:25:54.698Z,16.83
2022-09-07T00:26:54.506Z,16.79
2022-09-07T00:27:54.487Z,16.75
2022-09-07T00:28:54.579Z,16.87
2022-09-07T00:29:54.521Z,16.87
2022-09-07T00:30:54.516Z,16.76
2022-09-07T00:31:54.554Z,16.84
2022-09-07T00:32:54.484Z,16.87
2022-09-07T00:33:54.489Z,16.84
2022-09-07T00:34:54.460Z,16.84
2022-09-07T00:35:54.431Z,16.89
2022-09-07T00:36:54.424Z,16.79
2022-09-07T00:37:54.496Z,16.79
2022-09-07T00:38:54.452Z,16.87
2022-09-07T00:39:54.667Z,16.83
2022-09-07T00:40:54.440Z,16.86
2022-09-07T00:41:54.443Z,16.89
2022-09-07T00:42:54.394Z,16.76
2022-09-07T00:43:54.447Z,16.75
2022-09-07T00:44:54.411Z,16.83
2022-09-07T00:45:54.375Z,16.81
2022-09-07T00:46:54.403Z,16.81
2022-09-07T00:47:54.350Z,16.83
2022-09-07T00:48:54.362Z,16.79
2022-09-07T00:49:54.373Z,16.79
2022-09-07T00:50:54.332Z,16.81
2022-09-07T00:51:54.376Z,16.90
2022-09-07T00:52:54.344Z,16.76
2022-09-07T00:53:54.375Z,16.76
2022-09-07T00:54:54.356Z,16.79
2022-09-07T00:55:54.319Z,16.74
2022-09-07T00:56:54.310Z,16.76
2022-09-07T00:57:54.536Z,16.84
2022-09-07T00:58:54.301Z,16.81
2022-09-07T00:59:54.301Z,16.81
2022-09-07T01:00:54.280Z,16.89
2022-09-07T01:01:54.439Z,16.89
2022-09-07T01:02:54.437Z,16.89
2022-09-07T01:03:54.312Z,16.81
2022-09-07T01:04:54.278Z,16.91
2022-09-07T01:05:54.255Z,16.89
2022-09-07T01:06:54.332Z,16.91
2022-09-07T01:07:54.245Z,16.87
2022-09-07T01:08:54.286Z,16.84
2022-09-07T01:09:54.241Z,16.86
2022-09-07T01:10:54.237Z,16.91
2022-09-07T01:11:54.255Z,16.94
2022-09-07T01:12:54.206Z,16.94
2022-09-07T01:13:54.244Z,16.94
2022-09-07T01:14:54.195Z,16.94
2022-09-07T01:15:54.285Z,16.91
2022-09-07T01:16:54.627Z,16.90
2022-09-07T01:17:54.173Z,16.89
2022-09-07T01:18:54.185Z,16.90
2022-09-07T01:19:54.182Z,16.94
2022-09-07T01:20:54.172Z,16.89
2022-09-07T01:21:54.200Z,16.87
2022-09-07T01:22:54.198Z,16.91
2022-09-07T01:23:54.215Z,16.89
2022-09-07T01:24:54.202Z,16.81
2022-09-07T01:25:54.163Z,16.93
2022-09-07T01:26:54.167Z,16.87
2022-09-07T01:27:54.130Z,16.84
2022-09-07T01:28:54.165Z,16.96
2022-09-07T01:29:54.139Z,16.91
2022-09-07T01:30:54.199Z,16.94
2022-09-07T01:31:54.132Z,16.91
2022-09-07T01:32:54.120Z,16.93
2022-09-07T01:33:54.090Z,16.99
2022-09-07T01:34:54.099Z,16.91
2022-09-07T01:35:54.103Z,16.97
2022-09-07T01:36:54.071Z,16.94
2022-09-07T01:37:57.064Z,16.94
2022-09-07T01:38:54.075Z,16.97
2022-09-07T01:39:54.128Z,16.90
2022-09-07T01:40:54.064Z,16.94
2022-09-07T01:41:54.051Z,16.97
2022-09-07T01:42:54.288Z,16.97
2022-09-07T01:43:54.049Z,17.02
2022-09-07T01:44:54.046Z,16.99
2022-09-07T01:45:54.186Z,17.04
2022-09-07T01:46:54.048Z,17.04
2022-09-07T01:47:54.050Z,16.97
2022-09-07T01:48:54.024Z,16.99
2022-09-07T01:49:54.018Z,16.97
2022-09-07T01:50:54.012Z,17.01
2022-09-07T01:51:53.990Z,16.99
2022-09-07T01:52:54.204Z,17.04
2022-09-07T01:53:54.020Z,17.02
2022-09-07T01:54:53.980Z,17.01
2022-09-07T01:55:54.011Z,17.02
2022-09-07T01:56:53.968Z,16.97
2022-09-07T01:57:53.970Z,16.99
2022-09-07T01:58:53.986Z,16.94
2022-09-07T01:59:54.004Z,16.94
2022-09-07T02:00:53.946Z,16.97
2022-09-07T02:01:54.033Z,16.96
2022-09-07T02:02:54.001Z,16.96
2022-09-07T02:03:53.930Z,16.93
2022-09-07T02:04:53.971Z,16.96
2022-09-07T02:05:53.939Z,17.01
2022-09-07T02:06:53.919Z,17.04
2022-09-07T02:07:53.929Z,17.02
2022-09-07T02:08:53.915Z,17.01
2022-09-07T02:09:53.903Z,16.96
2022-09-07T02:10:53.895Z,17.01
2022-09-07T02:11:53.901Z,16.96
2022-09-07T02:12:53.876Z,17.01
2022-09-07T02:13:53.897Z,16.99
2022-09-07T02:14:53.868Z,17.09
2022-09-07T02:15:54.034Z,16.97
2022-09-07T02:16:54.028Z,17.01
2022-09-07T02:17:53.835Z,17.01
2022-09-07T02:18:53.817Z,17.06
2022-09-07T02:19:53.835Z,17.01
2022-09-07T02:20:53.819Z,17.09
2022-09-07T02:21:53.865Z,17.02
2022-09-07T02:22:53.800Z,17.01
2022-09-07T02:23:53.815Z,16.96
2022-09-07T02:24:53.811Z,17.01
2022-09-07T02:25:53.830Z,17.01
2022-09-07T02:26:53.782Z,17.02
2022-09-07T02:27:53.802Z,16.97
2022-09-07T02:28:53.772Z,17.05
2022-09-07T02:29:53.762Z,17.01
2022-09-07T02:30:53.791Z,16.99
2022-09-07T02:31:53.763Z,16.97
2022-09-07T02:32:53.765Z,16.94
2022-09-07T02:33:53.777Z,16.89
2022-09-07T02:34:53.775Z,16.89
2022-09-07T02:35:53.989Z,16.87
2022-09-07T02:36:53.759Z,16.89
2022-09-07T02:37:53.740Z,16.87
2022-09-07T02:38:53.763Z,16.89
2022-09-07T02:39:53.866Z,16.89
2022-09-07T02:40:53.735Z,16.86
2022-09-07T02:41:53.718Z,16.84
2022-09-07T02:42:53.717Z,16.81
2022-09-07T02:43:53.707Z,16.83
2022-09-07T02:44:53.680Z,16.81
2022-09-07T02:45:53.833Z,16.86
2022-09-07T02:46:53.690Z,16.81
2022-09-07T02:47:53.742Z,16.87
2022-09-07T02:48:53.685Z,16.84
2022-09-07T02:49:53.675Z,16.89
2022-09-07T02:50:53.660Z,16.79
2022-09-07T02:51:53.858Z,16.79
2022-09-07T02:52:53.641Z,16.79
2022-09-07T02:53:53.652Z,16.89
2022-09-07T02:54:53.688Z,16.81
2022-09-07T02:55:53.635Z,16.79
2022-09-07T02:56:53.624Z,16.83
2022-09-07T02:57:53.599Z,16.75
2022-09-07T02:58:53.638Z,16.78
2022-09-07T02:59:53.631Z,16.84
2022-09-07T03:00:53.636Z,16.89
2022-09-07T03:01:53.735Z,16.87
2022-09-07T03:02:53.639Z,16.83
2022-09-07T03:03:53.593Z,16.78
2022-09-07T03:04:53.567Z,16.81
2022-09-07T03:05:53.575Z,16.79
2022-09-07T03:06:53.590Z,16.79
2022-09-07T03:07:53.552Z,16.74
2022-09-07T03:08:53.535Z,16.72
2022-09-07T03:09:53.551Z,16.72
2022-09-07T03:10:53.755Z,16.72
2022-09-07T03:11:53.534Z,16.60
2022-09-07T03:12:53.531Z,16.58
2022-09-07T03:13:53.525Z,16.66
2022-09-07T03:14:53.506Z,16.65
2022-09-07T03:15:55.975Z,16.74
2022-09-07T03:16:53.597Z,16.69
2022-09-07T03:17:53.508Z,16.65
2022-09-07T03:18:53.487Z,16.66
2022-09-07T03:19:53.483Z,16.68
2022-09-07T03:20:53.485Z,16.61
2022-09-07T03:21:53.461Z,16.60
2022-09-07T03:22:53.471Z,16.64
2022-09-07T03:23:53.479Z,16.60
2022-09-07T03:24:53.477Z,16.58
2022-09-07T03:25:53.445Z,16.58
2022-09-07T03:26:53.438Z,16.64
2022-09-07T03:27:53.428Z,16.58
2022-09-07T03:28:53.421Z,16.54
2022-09-07T03:29:53.446Z,16.56
2022-09-07T03:30:53.475Z,16.60
2022-09-07T03:31:53.413Z,16.65
2022-09-07T03:32:53.441Z,16.61
2022-09-07T03:33:53.399Z,16.58
2022-09-07T03:34:53.426Z,16.56
2022-09-07T03:35:53.396Z,16.64
2022-09-07T03:36:53.403Z,16.61
2022-09-07T03:37:53.373Z,16.58
2022-09-07T03:38:53.398Z,16.58
2022-09-07T03:39:53.391Z,16.56
2022-09-07T03:40:53.383Z,16.57
2022-09-07T03:41:53.401Z,16.60
2022-09-07T03:42:53.342Z,16.54
2022-09-07T03:43:53.365Z,16.56
2022-09-07T03:44:53.338Z,16.57
2022-09-07T03:45:53.402Z,16.51
2022-09-07T03:46:53.357Z,16.58
2022-09-07T03:47:53.343Z,16.61
2022-09-07T03:48:53.326Z,16.57
2022-09-07T03:49:53.300Z,16.58
2022-09-07T03:50:53.333Z,16.57
2022-09-07T03:51:53.298Z,16.65
2022-09-07T03:52:53.301Z,16.58
2022-09-07T03:53:53.299Z,16.56
2022-09-07T03:54:53.309Z,16.58
2022-09-07T03:55:53.286Z,16.56
2022-09-07T03:56:53.279Z,16.60
2022-09-07T03:57:53.251Z,16.57
2022-09-07T03:58:53.234Z,16.61
2022-09-07T03:59:53.274Z,16.60
2022-09-07T04:00:53.264Z,16.56
2022-09-07T04:01:53.301Z,16.65
2022-09-07T04:02:53.275Z,16.65
2022-09-07T04:03:53.212Z,16.65
2022-09-07T04:04:53.214Z,16.65
2022-09-07T04:05:53.361Z,16.66
2022-09-07T04:06:53.201Z,16.58
2022-09-07T04:07:53.306Z,16.69
2022-09-07T04:08:53.801Z,16.56
2022-09-07T04:09:53.370Z,16.66
2022-09-07T04:10:53.317Z,16.57
2022-09-07T04:11:53.178Z,16.66
2022-09-07T04:12:53.185Z,16.60
2022-09-07T04:13:53.155Z,16.54
2022-09-07T04:14:53.162Z,16.65
2022-09-07T04:15:54.074Z,16.56
2022-09-07T04:16:53.199Z,16.61
2022-09-07T04:17:53.129Z,16.58
2022-09-07T04:18:53.174Z,16.56
2022-09-07T04:19:53.490Z,16.58
2022-09-07T04:20:53.283Z,16.58
2022-09-07T04:21:53.406Z,16.56
2022-09-07T04:22:54.363Z,16.58
2022-09-07T04:23:53.080Z,16.61
2022-09-07T04:24:53.239Z,16.57
2022-09-07T04:25:53.063Z,16.56
2022-09-07T04:26:53.142Z,16.56
2022-09-07T04:27:53.056Z,16.60
2022-09-07T04:28:53.074Z,16.58
2022-09-07T04:29:53.044Z,16.65
2022-09-07T04:30:53.131Z,16.57
2022-09-07T04:31:53.088Z,16.61
2022-09-07T04:32:53.073Z,16.60
2022-09-07T04:33:53.136Z,16.61
2022-09-07T04:34:53.056Z,16.56
2022-09-07T04:35:53.072Z,16.60
2022-09-07T04:36:53.020Z,16.56
2022-09-07T04:37:53.125Z,16.60
2022-09-07T04:38:53.006Z,16.61
2022-09-07T04:39:53.077Z,16.68
2022-09-07T04:40:53.012Z,16.64
2022-09-07T04:41:52.983Z,16.68
2022-09-07T04:42:52.999Z,16.65
2022-09-07T04:43:53.005Z,16.65
2022-09-07T04:44:52.998Z,16.58
2022-09-07T04:45:53.275Z,16.60
2022-09-07T04:46:53.002Z,16.60
2022-09-07T04:47:52.988Z,16.57
2022-09-07T04:48:52.954Z,16.61
2022-09-07T04:49:52.953Z,16.65
2022-09-07T04:50:53.155Z,16.69
2022-09-07T04:51:52.964Z,16.75
2022-09-07T04:52:52.962Z,16.72
2022-09-07T04:53:52.937Z,16.72
2022-09-07T04:54:52.941Z,16.74
2022-09-07T04:55:52.922Z,16.79
2022-09-07T04:56:52.958Z,16.74
2022-09-07T04:57:52.937Z,16.75
2022-09-07T04:58:52.915Z,16.76
2022-09-07T04:59:52.929Z,16.74
2022-09-07T05:00:52.945Z,16.74
2022-09-07T05:01:52.946Z,16.76
2022-09-07T05:02:52.876Z,16.75
2022-09-07T05:03:52.945Z,16.74
2022-09-07T05:04:52.959Z,16.79
2022-09-07T05:05:52.846Z,16.86
2022-09-07T05:06:52.879Z,16.87
2022-09-07T05:07:52.875Z,16.81
2022-09-07T05:08:52.839Z,16.90
2022-09-07T05:09:52.837Z,16.75
2022-09-07T05:10:52.858Z,16.87
2022-09-07T05:11:52.809Z,16.79
2022-09-07T05:12:52.936Z,16.83
2022-09-07T05:13:52.803Z,16.90
2022-09-07T05:14:52.783Z,16.78
2022-09-07T05:15:52.797Z,16.89
2022-09-07T05:16:53.508Z,16.90
2022-09-07T05:17:52.761Z,16.91
2022-09-07T05:18:52.744Z,16.99
2022-09-07T05:19:52.769Z,17.02
2022-09-07T05:20:52.749Z,17.02
2022-09-07T05:21:53.079Z,16.97
2022-09-07T05:22:52.743Z,16.96
2022-09-07T05:23:52.763Z,16.99
2022-09-07T05:24:52.750Z,17.11
2022-09-07T05:25:52.791Z,17.22
2022-09-07T05:26:52.960Z,17.26
2022-09-07T05:27:53.070Z,17.36
2022-09-07T05:28:53.544Z,17.42
2022-09-07T05:31:52.698Z,17.57
2022-09-07T05:32:52.707Z,17.46
2022-09-07T05:34:53.103Z,17.42
2022-09-07T05:35:52.677Z,17.39
2022-09-07T05:36:52.693Z,17.26
2022-09-07T05:37:52.709Z,17.29
2022-09-07T05:38:52.666Z,17.31
2022-09-07T05:39:52.813Z,17.23
2022-09-07T05:40:52.626Z,17.31
2022-09-07T05:41:52.663Z,17.34
2022-09-07T05:42:52.652Z,17.34
2022-09-07T05:44:52.622Z,17.49
2022-09-07T05:45:52.655Z,17.45
2022-09-07T05:46:52.626Z,17.45
2022-09-07T05:47:52.610Z,17.44
2022-09-07T05:48:52.611Z,17.45
2022-09-07T05:49:55.258Z,17.52
2022-09-07T05:50:52.636Z,17.56
2022-09-07T05:51:52.599Z,17.57
2022-09-07T05:52:52.622Z,17.57
2022-09-07T05:53:52.567Z,17.56
2022-09-07T05:54:54.319Z,17.57
2022-09-07T05:55:52.550Z,17.56
2022-09-07T05:56:52.570Z,17.67
2022-09-07T05:57:52.548Z,17.70
2022-09-07T05:58:52.545Z,17.60
2022-09-07T05:59:52.581Z,17.67
2022-09-07T06:00:52.528Z,17.70
2022-09-07T06:01:52.688Z,17.82
2022-09-07T06:02:52.632Z,17.86
2022-09-07T06:03:52.618Z,17.95
2022-09-07T06:04:52.654Z,18.16
2022-09-07T06:05:52.519Z,18.19
2022-09-07T06:07:20.227Z,18.33
2022-09-07T06:07:52.487Z,18.58
2022-09-07T06:08:52.505Z,18.73
2022-09-07T06:10:52.463Z,19.11
2022-09-07T06:11:52.473Z,19.27
2022-09-07T06:12:52.469Z,19.40
2022-09-07T06:13:52.452Z,19.58
2022-09-07T06:14:52.477Z,19.44
2022-09-07T06:15:52.448Z,19.31
2022-09-07T06:16:52.524Z,19.36
2022-09-07T06:17:52.425Z,19.40
2022-09-07T06:18:52.431Z,19.55
2022-09-07T06:19:52.444Z,19.71
2022-09-07T06:20:52.452Z,19.89
2022-09-07T06:21:52.425Z,20.14
2022-09-07T06:22:52.420Z,20.26
2022-09-07T06:23:52.464Z,20.34
2022-09-07T06:24:52.398Z,20.22
2022-09-07T06:25:52.400Z,20.14
2022-09-07T06:26:52.397Z,20.22
2022-09-07T06:27:52.394Z,20.25
2022-09-07T06:28:57.161Z,20.31
2022-09-07T06:29:52.379Z,20.24
2022-09-07T06:30:52.403Z,20.25
2022-09-07T06:32:52.385Z,20.22
2022-09-07T06:33:52.421Z,20.22
2022-09-07T06:34:52.352Z,20.18
2022-09-07T06:35:52.395Z,20.22
2022-09-07T06:36:52.424Z,20.28
2022-09-07T06:37:52.370Z,20.36
2022-09-07T06:38:52.474Z,20.40
2022-09-07T06:39:52.441Z,20.43
2022-09-07T06:41:59.582Z,20.43
2022-09-07T06:42:52.476Z,20.39
2022-09-07T06:43:52.312Z,20.36
2022-09-07T06:44:52.374Z,20.36
2022-09-07T06:45:52.510Z,20.37
2022-09-07T06:47:07.750Z,20.31
2022-09-07T06:47:52.306Z,20.40
2022-09-07T06:48:52.309Z,20.37
2022-09-07T06:49:52.306Z,20.56
2022-09-07T06:50:52.321Z,20.77
2022-09-07T06:51:52.294Z,21.09
2022-09-07T06:53:52.821Z,21.54
2022-09-07T06:54:59.883Z,21.76
2022-09-07T06:55:52.279Z,21.92
2022-09-07T06:56:52.276Z,22.04
2022-09-07T06:57:52.263Z,22.02
2022-09-07T06:58:52.252Z,21.98
2022-09-07T06:59:52.249Z,21.92
2022-09-07T07:00:52.292Z,21.82
2022-09-07T07:01:52.251Z,21.96
2022-09-07T07:02:52.334Z,21.82
2022-09-07T07:03:52.271Z,21.70
2022-09-07T07:04:52.240Z,21.61
2022-09-07T07:05:52.477Z,21.62
2022-09-07T07:06:52.266Z,21.62
2022-09-07T07:07:52.273Z,21.64
2022-09-07T07:08:52.284Z,21.69
2022-09-07T07:09:52.534Z,21.75
2022-09-07T07:10:52.434Z,21.72
2022-09-07T07:11:52.676Z,21.76
2022-09-07T07:12:52.514Z,21.91
2022-09-07T07:13:52.548Z,21.91
2022-09-07T07:14:52.541Z,21.98
2022-09-07T07:15:52.367Z,21.99
2022-09-07T07:16:52.640Z,22.07
2022-09-07T07:17:58.377Z,22.18
2022-09-07T07:18:52.463Z,22.23
2022-09-07T07:19:52.613Z,22.30
2022-09-07T07:20:52.456Z,22.17
2022-09-07T07:22:29.164Z,22.00
2022-09-07T07:22:52.486Z,21.95
2022-09-07T07:23:52.661Z,21.83
2022-09-07T07:24:52.490Z,21.91
2022-09-07T07:25:52.451Z,21.85
2022-09-07T07:26:52.464Z,21.88
2022-09-07T07:27:52.735Z,21.95
2022-09-07T07:29:52.461Z,22.06
2022-09-07T07:30:52.428Z,22.11
2022-09-07T07:31:52.524Z,22.15
2022-09-07T07:32:52.331Z,22.32
2022-09-07T07:33:52.376Z,22.50
2022-09-07T07:34:52.348Z,22.62
2022-09-07T07:35:52.440Z,22.57
2022-09-07T07:36:52.559Z,22.59
2022-09-07T07:37:52.523Z,22.59
2022-09-07T07:39:00.335Z,22.75
2022-09-07T07:42:52.313Z,23.21
2022-09-07T07:43:52.113Z,23.37
2022-09-07T07:46:52.455Z,23.12
2022-09-07T07:47:52.488Z,22.93
2022-09-07T07:48:52.529Z,22.94
2022-09-07T07:50:30.627Z,22.96
2022-09-07T07:50:52.334Z,23.18
2022-09-07T07:53:41.244Z,23.31
2022-09-07T07:53:52.354Z,23.43
2022-09-07T07:54:52.395Z,23.51
2022-09-07T07:55:52.399Z,23.41
2022-09-07T07:56:52.139Z,23.74
2022-09-07T07:57:52.190Z,24.14
2022-09-07T07:58:52.280Z,24.53
2022-09-07T07:59:52.404Z,24.86
2022-09-07T08:00:55.095Z,25.17
2022-09-07T08:01:52.484Z,25.58
2022-09-07T08:02:52.680Z,25.78
2022-09-07T08:03:52.377Z,25.98
2022-09-07T08:04:52.333Z,26.22
2022-09-07T08:05:52.362Z,26.06
2022-09-07T08:06:52.149Z,25.65
2022-09-07T08:07:52.231Z,25.65
2022-09-07T08:08:52.298Z,25.70
2022-09-07T08:09:52.371Z,26.03
2022-09-07T08:10:52.880Z,26.36
2022-09-07T08:11:54.950Z,26.52
2022-09-07T08:12:52.512Z,26.90
2022-09-07T08:13:52.263Z,26.88
2022-09-07T08:14:52.846Z,26.37
2022-09-07T08:15:52.291Z,25.96
2022-09-07T08:16:52.331Z,25.81
2022-09-07T08:17:52.334Z,25.90
2022-09-07T08:18:52.582Z,25.72
2022-09-07T08:19:52.450Z,25.69
2022-09-07T08:20:52.179Z,25.77
2022-09-07T08:21:52.434Z,25.77
2022-09-07T08:22:52.514Z,25.53
2022-09-07T08:23:52.438Z,25.22
2022-09-07T08:24:52.446Z,25.17
2022-09-07T08:25:52.817Z,25.46
2022-09-07T08:26:52.196Z,25.65
2022-09-07T08:27:52.292Z,25.66
2022-09-07T08:28:52.649Z,26.10
2022-09-07T08:29:52.415Z,26.88
2022-09-07T08:30:52.478Z,26.93
2022-09-07T08:31:52.523Z,27.21
2022-09-07T08:32:52.549Z,27.44
2022-09-07T08:33:52.399Z,27.68
2022-09-07T08:34:52.450Z,27.74
2022-09-07T08:35:52.401Z,27.67
2022-09-07T08:36:52.338Z,27.18
2022-09-07T08:37:52.527Z,27.17
2022-09-07T08:38:52.389Z,27.18
2022-09-07T08:39:52.774Z,27.21
2022-09-07T08:40:52.496Z,27.55
2022-09-07T08:41:52.209Z,27.47
2022-09-07T08:42:52.494Z,27.45
2022-09-07T08:43:52.418Z,27.71
2022-09-07T08:44:52.482Z,27.86
2022-09-07T08:45:52.391Z,27.73
2022-09-07T08:46:52.544Z,27.42
2022-09-07T08:47:52.446Z,27.42
2022-09-07T08:48:52.300Z,27.37
2022-09-07T08:49:52.364Z,27.26
2022-09-07T08:50:52.381Z,27.54
2022-09-07T08:51:52.490Z,27.87
2022-09-07T08:52:52.454Z,28.20
2022-09-07T08:53:52.523Z,28.19
2022-09-07T08:54:52.697Z,28.12
2022-09-07T08:55:52.694Z,28.01
2022-09-07T08:57:52.585Z,27.03
2022-09-07T08:58:52.564Z,26.66
2022-09-07T08:59:52.581Z,26.63
2022-09-07T09:01:30.680Z,27.15
2022-09-07T09:04:22.513Z,28.63
2022-09-07T09:05:53.173Z,28.62
2022-09-07T09:06:52.670Z,28.64
2022-09-07T09:07:52.563Z,28.89
2022-09-07T09:08:52.620Z,28.97
2022-09-07T09:09:52.493Z,28.72
2022-09-07T09:10:52.651Z,28.64
2022-09-07T09:11:52.546Z,28.64
2022-09-07T09:12:52.583Z,28.69
2022-09-07T09:13:52.599Z,28.66
2022-09-07T09:14:52.596Z,28.79
2022-09-07T09:16:52.668Z,28.37
2022-09-07T09:17:52.591Z,28.39
2022-09-07T09:18:52.423Z,28.37
2022-09-07T09:19:52.594Z,28.44
2022-09-07T09:20:52.590Z,28.20
2022-09-07T09:21:52.444Z,27.86
2022-09-07T09:22:52.421Z,27.64
2022-09-07T09:23:52.573Z,27.65
2022-09-07T09:24:52.404Z,27.48
2022-09-07T09:25:52.771Z,27.55
2022-09-07T09:26:52.523Z,27.67
2022-09-07T09:27:52.488Z,27.30
2022-09-07T09:28:52.531Z,27.32
2022-09-07T09:29:52.248Z,27.25
2022-09-07T09:30:52.584Z,27.52
2022-09-07T09:31:52.647Z,27.75
2022-09-07T09:32:52.711Z,28.00
2022-09-07T09:33:52.560Z,28.07
2022-09-07T09:34:52.465Z,28.05
2022-09-07T09:35:52.512Z,28.14
2022-09-07T09:36:52.167Z,28.14
2022-09-07T09:37:52.264Z,28.08
2022-09-07T09:38:52.210Z,27.80
2022-09-07T09:39:54.454Z,27.74
2022-09-07T09:40:52.187Z,27.55
2022-09-07T09:41:52.168Z,27.71
2022-09-07T09:42:52.188Z,27.83
2022-09-07T09:43:52.144Z,27.93
2022-09-07T09:44:52.210Z,27.86
2022-09-07T09:47:29.624Z,27.83
2022-09-07T09:47:52.178Z,27.93
2022-09-07T09:48:52.157Z,27.95
2022-09-07T09:49:52.169Z,28.17
2022-09-07T09:52:52.349Z,28.44
2022-09-07T09:53:52.131Z,28.60
2022-09-07T09:54:52.161Z,28.59
2022-09-07T09:55:52.173Z,28.70
2022-09-07T09:56:52.382Z,28.75
2022-09-07T09:59:56.865Z,28.52
2022-09-07T09:59:57.105Z,28.29
2022-09-07T10:03:55.797Z,28.19
2022-09-07T10:04:52.148Z,28.52
2022-09-07T10:05:52.174Z,28.70
2022-09-07T10:06:52.171Z,28.97
2022-09-07T10:07:52.379Z,29.13
2022-09-07T10:08:52.505Z,29.17
2022-09-07T10:09:52.501Z,29.19
2022-09-07T10:10:52.415Z,29.35
2022-09-07T10:12:08.238Z,28.94
2022-09-07T10:12:52.140Z,28.81
2022-09-07T10:13:52.274Z,28.62
2022-09-07T10:14:52.285Z,28.59
2022-09-07T10:15:52.146Z,28.49
2022-09-07T10:16:52.143Z,28.45
2022-09-07T10:17:52.156Z,28.52
2022-09-07T10:18:52.169Z,28.63
2022-09-07T10:19:52.610Z,29.01
2022-09-07T10:20:52.128Z,29.19
2022-09-07T10:21:52.437Z,29.29
2022-09-07T10:22:52.584Z,29.34
2022-09-07T10:23:52.163Z,29.34
2022-09-07T10:24:52.137Z,29.16
2022-09-07T10:25:52.132Z,29.01
2022-09-07T10:26:52.119Z,28.57
2022-09-07T10:27:52.123Z,28.48
2022-09-07T10:29:08.016Z,28.45
2022-09-07T10:29:52.146Z,28.38
2022-09-07T10:30:52.187Z,28.44
2022-09-07T10:31:52.155Z,28.52
2022-09-07T10:32:52.158Z,28.59
2022-09-07T10:34:52.133Z,28.37
2022-09-07T10:35:52.119Z,28.48
2022-09-07T10:36:52.134Z,28.56
2022-09-07T10:37:52.107Z,28.52
2022-09-07T10:38:52.117Z,28.45
2022-09-07T10:39:54.809Z,28.30
2022-09-07T10:40:52.117Z,28.10
2022-09-07T10:41:52.118Z,27.93
2022-09-07T10:43:52.121Z,27.87
2022-09-07T10:44:52.120Z,27.74
2022-09-07T10:45:52.255Z,27.68
2022-09-07T10:46:59.419Z,27.75
2022-09-07T10:47:52.164Z,27.80
2022-09-07T10:48:52.112Z,27.83
2022-09-07T10:50:52.325Z,27.87
2022-09-07T10:51:52.120Z,28.04
2022-09-07T10:52:52.100Z,28.04
2022-09-07T10:54:29.887Z,28.17
2022-09-07T10:54:52.102Z,28.14
2022-09-07T10:55:52.152Z,28.20
2022-09-07T10:56:52.107Z,28.17
2022-09-07T10:57:52.115Z,28.15
2022-09-07T10:59:07.627Z,28.02
2022-09-07T11:00:08.377Z,27.78
2022-09-07T11:00:52.122Z,27.55
2022-09-07T11:01:52.271Z,27.36
2022-09-07T11:03:52.404Z,27.14
2022-09-07T11:04:52.136Z,27.03
2022-09-07T11:05:52.135Z,27.07
2022-09-07T11:06:52.106Z,27.00
2022-09-07T11:07:52.146Z,26.96
2022-09-07T11:09:52.111Z,26.92
2022-09-07T11:10:52.103Z,26.84
2022-09-07T11:12:07.648Z,26.90
2022-09-07T11:12:52.146Z,26.97
2022-09-07T11:14:11.978Z,26.97
2022-09-07T11:14:52.116Z,26.92
2022-09-07T11:15:52.156Z,26.93
2022-09-07T11:16:52.457Z,26.90
2022-09-07T11:17:53.136Z,27.11
2022-09-07T11:18:52.264Z,27.17
2022-09-07T11:19:52.087Z,27.27
2022-09-07T11:20:52.116Z,27.36
2022-09-07T11:21:59.264Z,27.45
2022-09-07T11:22:52.112Z,27.64
2022-09-07T11:23:52.104Z,27.78
2022-09-07T11:25:52.402Z,27.85
2022-09-07T11:26:52.599Z,27.98
2022-09-07T11:27:52.692Z,27.95
2022-09-07T11:29:52.087Z,28.35
2022-09-07T11:30:53.788Z,28.56
2022-09-07T11:31:52.078Z,28.79
2022-09-07T11:32:52.118Z,29.01
2022-09-07T11:34:52.411Z,29.12
2022-09-07T11:35:52.066Z,29.22
2022-09-07T11:36:52.080Z,29.27
2022-09-07T11:37:52.062Z,29.45
2022-09-07T11:38:52.101Z,29.59
2022-09-07T11:39:52.138Z,29.61
2022-09-07T11:40:52.117Z,29.56
2022-09-07T11:41:52.064Z,29.72
2022-09-07T11:42:52.079Z,29.54
2022-09-07T11:43:52.068Z,29.23
2022-09-07T11:44:52.149Z,29.19
2022-09-07T11:45:52.145Z,29.07
2022-09-07T11:46:52.100Z,29.04
2022-09-07T11:47:52.050Z,29.05
2022-09-07T11:48:52.079Z,29.14
2022-09-07T11:49:55.063Z,29.05
2022-09-07T11:50:52.077Z,29.19
2022-09-07T11:51:55.124Z,29.31
2022-09-07T11:52:55.115Z,29.41
2022-09-07T11:53:52.107Z,29.29
2022-09-07T11:54:52.307Z,29.10
2022-09-07T11:55:52.146Z,29.04
2022-09-07T11:56:52.087Z,29.02
2022-09-07T11:57:55.488Z,29.02
2022-09-07T11:58:52.090Z,29.10
2022-09-07T11:59:52.173Z,29.19
2022-09-07T12:00:52.091Z,29.31
2022-09-07T12:01:52.262Z,29.41
2022-09-07T12:03:00.755Z,29.49
2022-09-07T12:03:52.419Z,29.45
2022-09-07T12:04:56.222Z,29.31
2022-09-07T12:06:38.588Z,29.14
2022-09-07T12:08:56.129Z,29.27
2022-09-07T12:09:56.080Z,29.19
2022-09-07T12:10:56.158Z,29.12
2022-09-07T12:11:56.105Z,29.12
2022-09-07T12:13:48.518Z,29.08
2022-09-07T12:14:48.591Z,28.89
2022-09-07T12:15:48.522Z,28.98
2022-09-07T12:17:30.922Z,29.01
2022-09-07T12:18:31.026Z,29.07
2022-09-07T12:19:30.894Z,29.04
2022-09-07T12:21:33.340Z,28.93
2022-09-07T12:22:33.332Z,28.78
2022-09-07T12:23:33.337Z,28.75
2022-09-07T12:24:33.340Z,28.66
2022-09-07T12:25:33.695Z,28.64
2022-09-07T12:26:33.312Z,28.67
2022-09-07T12:27:33.319Z,28.67
2022-09-07T12:28:33.455Z,28.79
2022-09-07T12:29:33.334Z,29.02
2022-09-07T12:30:33.487Z,29.10
2022-09-07T12:31:39.658Z,29.19
2022-09-07T12:33:03.126Z,29.14
2022-09-07T12:33:33.336Z,29.04
2022-09-07T12:34:33.359Z,28.96
2022-09-07T12:35:33.489Z,28.82
2022-09-07T12:36:33.369Z,28.75
2022-09-07T12:37:33.337Z,28.66
2022-09-07T12:38:33.461Z,28.66
2022-09-07T12:39:33.483Z,28.74
2022-09-07T12:40:36.313Z,28.70
2022-09-07T13:00:17.375Z,29.23
2022-09-07T13:01:17.343Z,29.17
2022-09-07T13:02:18.136Z,29.12
2022-09-07T13:04:17.203Z,28.93
2022-09-07T13:05:17.360Z,28.94
2022-09-07T13:06:17.483Z,28.98
2022-09-07T13:07:17.234Z,28.96
2022-09-07T13:08:17.200Z,29.12
2022-09-07T13:09:17.191Z,29.17
2022-09-07T13:10:17.348Z,29.04
2022-09-07T13:11:17.202Z,28.81
2022-09-07T13:12:52.930Z,28.52
2022-09-07T13:13:17.685Z,28.35
2022-09-07T13:14:17.768Z,28.19
2022-09-07T13:15:24.074Z,28.23
2022-09-07T13:16:17.792Z,28.17
2022-09-07T13:17:17.414Z,28.15
2022-09-07T13:18:17.216Z,28.17
2022-09-07T13:19:17.251Z,28.19
2022-09-07T13:20:17.376Z,28.17
2022-09-07T13:21:17.236Z,28.08
2022-09-07T13:22:17.204Z,28.12
2022-09-07T13:23:17.201Z,28.11
2022-09-07T13:24:47.217Z,28.07
2022-09-07T13:25:17.345Z,28.15
2022-09-07T13:26:17.196Z,28.10
2022-09-07T13:27:17.194Z,28.17
2022-09-07T13:28:17.218Z,28.30
2022-09-07T13:29:17.211Z,28.27
2022-09-07T13:30:17.366Z,28.42
2022-09-07T13:31:17.257Z,28.45
2022-09-07T13:32:17.414Z,28.74
2022-09-07T13:33:17.191Z,28.78
2022-09-07T13:34:17.396Z,28.89
2022-09-07T13:36:39.713Z,29.04
2022-09-07T13:37:39.654Z,29.07
2022-09-07T13:38:39.685Z,28.88
2022-09-07T13:39:39.706Z,28.84
2022-09-07T13:40:39.835Z,28.85
2022-09-07T13:41:39.643Z,29.02
2022-09-07T13:42:39.688Z,29.12
2022-09-07T13:43:39.719Z,29.12
2022-09-07T13:44:39.665Z,29.19
2022-09-07T13:45:39.838Z,29.20
2022-09-07T13:46:39.714Z,29.17
2022-09-07T13:47:39.733Z,29.04
2022-09-07T13:48:39.688Z,29.12
2022-09-07T13:49:39.709Z,29.05
